Time;durP1;ratioP1;P1;durP2;ratioP2;P2;SDS_P1;SDS_P2;PMS_P1;PMS_P2;Temp;Humidity;BMP_temperature;BMP_pressure;BME280_temperature;BME280_humidity;BME280_pressure;Samples;Min_cycle;Max_cycle;Signal;HPM_P1;HPM_P2
2022/11/06 00:01:25;;;;;;;9.52;3.63;;;;;;;11.31;100.00;101383.91;4987919;28;20027;-67
2022/11/06 00:03:52;;;;;;;9.48;4.03;;;;;;;11.27;100.00;101387.56;4970429;28;20030;-66
2022/11/06 00:09:05;;;;;;;13.55;4.43;;;;;;;11.38;100.00;101382.88;4988282;28;20108;-66
2022/11/06 00:11:30;;;;;;;9.85;4.13;;;;;;;11.44;100.00;101371.25;4987970;28;20421;-66
2022/11/06 00:13:56;;;;;;;12.27;4.20;;;;;;;11.42;100.00;101367.78;4988788;28;20026;-65
2022/11/06 00:16:21;;;;;;;9.43;4.32;;;;;;;11.46;100.00;101364.16;4988026;28;20034;-67
2022/11/06 00:18:47;;;;;;;13.20;4.15;;;;;;;11.50;100.00;101368.44;4987334;28;20070;-67
2022/11/06 00:21:16;;;;;;;13.77;4.10;;;;;;;11.41;100.00;101358.16;4988604;28;20041;-66
2022/11/06 00:23:42;;;;;;;10.48;3.92;;;;;;;11.42;100.00;101359.88;4988648;28;20042;-65
2022/11/06 00:26:10;;;;;;;10.38;3.92;;;;;;;11.40;100.00;101353.75;4987529;28;20026;-67
2022/11/06 00:28:35;;;;;;;9.10;4.03;;;;;;;11.49;100.00;101358.78;4988001;28;20034;-66
2022/11/06 00:31:05;;;;;;;12.05;3.97;;;;;;;11.50;100.00;101360.53;4988357;28;20041;-64
2022/11/06 00:33:31;;;;;;;7.60;3.65;;;;;;;11.54;100.00;101362.16;4987387;28;20023;-65
2022/11/06 00:35:56;;;;;;;8.77;3.80;;;;;;;11.60;100.00;101358.47;4987687;28;20523;-66
2022/11/06 00:38:22;;;;;;;12.35;3.90;;;;;;;11.57;100.00;101358.56;4987572;28;20034;-65
2022/11/06 00:40:47;;;;;;;7.78;3.47;;;;;;;11.46;100.00;101354.47;4987785;28;20468;-66
2022/11/06 00:43:12;;;;;;;10.45;3.78;;;;;;;11.50;100.00;101347.34;4987901;28;20076;-64
2022/11/06 00:45:38;;;;;;;13.82;4.10;;;;;;;11.55;100.00;101353.31;4987460;28;20022;-65
2022/11/06 00:48:03;;;;;;;14.23;4.25;;;;;;;11.59;100.00;101356.75;4986639;28;20039;-65
2022/11/06 00:50:29;;;;;;;11.23;4.05;;;;;;;11.62;100.00;101354.88;4987752;28;20018;-66
2022/11/06 00:52:54;;;;;;;11.85;4.18;;;;;;;11.56;100.00;101355.03;4987475;28;20406;-66
2022/11/06 00:55:20;;;;;;;12.75;3.92;;;;;;;11.57;100.00;101348.88;4970320;28;20030;-65
2022/11/06 00:57:45;;;;;;;11.80;4.10;;;;;;;11.60;100.00;101355.84;4970025;28;20397;-65
2022/11/06 01:00:11;;;;;;;10.18;3.85;;;;;;;11.54;100.00;101346.31;4988035;28;20201;-66
2022/11/06 01:02:37;;;;;;;8.80;4.10;;;;;;;11.49;100.00;101341.19;4987184;28;20049;-65
2022/11/06 01:05:02;;;;;;;9.70;3.92;;;;;;;11.53;100.00;101355.13;4987110;28;20062;-68
2022/11/06 01:07:28;;;;;;;11.23;4.10;;;;;;;11.47;100.00;101355.34;4987883;28;20049;-67
2022/11/06 01:09:53;;;;;;;11.73;4.43;;;;;;;11.48;100.00;101349.16;4982742;28;20054;-67
2022/11/06 01:12:18;;;;;;;14.93;4.60;;;;;;;11.35;100.00;101349.50;4987466;28;20026;-66
2022/11/06 01:14:44;;;;;;;10.77;4.32;;;;;;;11.31;100.00;101352.25;4987460;28;20026;-67
2022/11/06 01:17:10;;;;;;;14.40;4.38;;;;;;;11.35;100.00;101354.75;4987059;28;20026;-65
2022/11/06 01:19:35;;;;;;;14.85;4.75;;;;;;;11.23;100.00;101347.22;4987950;28;20632;-65
2022/11/06 01:22:00;;;;;;;17.48;4.72;;;;;;;11.28;100.00;101342.66;4986276;28;20019;-66
2022/11/06 01:24:27;;;;;;;11.15;4.18;;;;;;;11.25;100.00;101340.13;4987260;28;20076;-65
2022/11/06 01:26:53;;;;;;;12.43;4.50;;;;;;;11.21;100.00;101343.75;4987706;28;20065;-65
2022/11/06 01:29:19;;;;;;;12.25;4.05;;;;;;;11.21;100.00;101327.94;4987396;28;20432;-65
2022/11/06 01:31:46;;;;;;;13.00;4.65;;;;;;;11.16;100.00;101330.69;4987387;28;20054;-67
2022/11/06 01:34:12;;;;;;;14.15;4.50;;;;;;;11.09;100.00;101329.16;4985457;28;20074;-65
2022/11/06 01:36:37;;;;;;;13.30;4.45;;;;;;;11.09;100.00;101330.03;4985690;28;20023;-65
2022/11/06 01:39:04;;;;;;;10.60;4.30;;;;;;;11.15;100.00;101326.34;4987282;28;20030;-66
2022/11/06 01:41:37;;;;;;;15.27;4.85;;;;;;;11.08;100.00;101336.19;4987608;28;20105;-66
2022/11/06 01:44:23;;;;;;;10.60;4.80;;;;;;;11.05;100.00;101333.63;4990427;28;20085;-66
2022/11/06 01:46:48;;;;;;;12.30;4.72;;;;;;;11.09;100.00;101331.78;4990638;28;20499;-66
2022/11/06 01:49:15;;;;;;;11.20;4.50;;;;;;;11.10;100.00;101329.09;4990196;28;20022;-66
2022/11/06 01:51:49;;;;;;;10.38;4.32;;;;;;;11.11;100.00;101324.69;4990906;28;20026;-66
2022/11/06 01:54:15;;;;;;;12.90;4.30;;;;;;;11.16;100.00;101319.28;4989413;28;20081;-66
2022/11/06 01:56:43;;;;;;;9.68;3.95;;;;;;;11.09;100.00;101323.88;4990980;28;20045;-66
2022/11/06 01:59:12;;;;;;;9.35;4.03;;;;;;;11.09;100.00;101322.09;5005557;28;20034;-66
2022/11/06 02:01:38;;;;;;;15.18;4.30;;;;;;;11.04;100.00;101321.34;5005532;28;20027;-67
2022/11/06 02:04:26;;;;;;;18.08;4.72;;;;;;;10.99;100.00;101318.00;5004747;28;20030;-66
2022/11/06 02:06:52;;;;;;;20.17;4.53;;;;;;;10.97;100.00;101317.16;4989682;28;20050;-65
2022/11/06 02:09:18;;;;;;;10.25;4.05;;;;;;;10.97;100.00;101328.59;4988795;28;20042;-65
2022/11/06 02:11:51;;;;;;;12.27;4.60;;;;;;;10.93;100.00;101318.16;5005662;28;20026;-66
2022/11/06 02:14:34;;;;;;;14.52;4.60;;;;;;;10.95;100.00;101319.84;4990355;28;20030;-66
2022/11/06 02:17:28;;;;;;;8.88;4.80;;;;;;;10.96;100.00;101326.00;4972052;28;20037;-66
2022/11/06 02:19:53;;;;;;;16.90;5.25;;;;;;;10.82;100.00;101310.53;4990128;28;20061;-68
2022/11/06 02:22:35;;;;;;;12.55;5.03;;;;;;;10.86;100.00;101306.91;4990340;28;20042;-65
2022/11/06 02:25:07;;;;;;;13.43;5.38;;;;;;;10.78;100.00;101301.00;4988766;28;20543;-66
2022/11/06 02:27:40;;;;;;;16.35;4.63;;;;;;;10.82;100.00;101306.16;4989755;28;20026;-67
2022/11/06 02:30:11;;;;;;;17.23;5.20;;;;;;;10.82;100.00;101300.88;5003978;28;20030;-66
2022/11/06 02:32:54;;;;;;;10.13;5.13;;;;;;;10.83;100.00;101297.31;5004638;28;20062;-65
2022/11/06 02:35:32;;;;;;;18.30;5.90;;;;;;;10.84;100.00;101301.69;4989798;28;20095;-67
2022/11/06 02:38:02;;;;;;;10.20;5.05;;;;;;;10.96;100.00;101299.63;4988712;28;20050;-67
2022/11/06 02:40:32;;;;;;;13.10;5.00;;;;;;;10.96;100.00;101299.63;4988462;28;20045;-65
2022/11/06 02:43:00;;;;;;;15.75;5.55;;;;;;;10.97;100.00;101301.34;5004545;28;20034;-67
2022/11/06 02:45:25;;;;;;;9.88;4.93;;;;;;;10.94;100.00;101301.44;5004811;28;20022;-68
2022/11/06 02:47:53;;;;;;;17.83;6.13;;;;;;;10.97;100.00;101291.69;4988758;28;20026;-68
2022/11/06 02:50:29;;;;;;;19.85;5.28;;;;;;;11.05;100.00;101275.59;4988536;28;20033;-66
2022/11/06 02:53:02;;;;;;;15.35;5.60;;;;;;;11.02;100.00;101272.22;4988068;28;20026;-66
2022/11/06 02:55:31;;;;;;;19.27;6.63;;;;;;;10.94;100.00;101256.59;5003676;28;20026;-67
2022/11/06 02:58:19;;;;;;;19.98;6.70;;;;;;;10.95;100.00;101260.97;4989032;28;20046;-67
2022/11/06 03:00:50;;;;;;;22.08;6.47;;;;;;;11.00;100.00;101261.72;4989196;28;20042;-66
2022/11/06 03:03:34;;;;;;;16.88;6.07;;;;;;;10.95;100.00;101271.50;4987311;28;20377;-66
2022/11/06 03:06:05;;;;;;;19.52;5.75;;;;;;;11.02;100.00;101272.22;5004489;28;20033;-66
2022/11/06 03:08:35;;;;;;;17.58;7.07;;;;;;;11.00;100.00;101280.16;4981708;28;20069;-66
2022/11/06 03:11:11;;;;;;;14.60;6.13;;;;;;;11.03;100.00;101274.81;4969672;28;20438;-68
2022/11/06 03:13:57;;;;;;;13.45;5.68;;;;;;;11.04;100.00;101276.53;4952657;28;20121;-66
2022/11/06 03:16:53;;;;;;;18.10;5.90;;;;;;;11.04;100.00;101265.97;4969427;28;20034;-67
2022/11/06 03:19:26;;;;;;;21.33;6.72;;;;;;;11.03;100.00;101260.75;4969472;28;20058;-66
2022/11/06 03:22:06;;;;;;;15.57;5.90;;;;;;;11.03;100.00;101261.63;4970311;28;20393;-67
2022/11/06 03:24:54;;;;;;;18.50;5.80;;;;;;;11.06;100.00;101256.25;4968800;28;20090;-65
2022/11/06 03:27:24;;;;;;;17.23;6.20;;;;;;;11.14;100.00;101263.09;4970628;28;20540;-65
2022/11/06 03:30:00;;;;;;;16.27;6.13;;;;;;;11.08;100.00;101249.16;4971965;28;20037;-66
2022/11/06 03:32:29;;;;;;;20.35;5.72;;;;;;;11.07;100.00;101263.25;4970608;28;20515;-66
2022/11/06 03:35:02;;;;;;;15.90;5.78;;;;;;;11.16;100.00;101256.84;4989191;28;20113;-67
2022/11/06 03:38:06;;;;;;;17.67;5.32;;;;;;;11.21;100.00;101260.22;4971098;28;20370;-65
2022/11/06 03:40:36;;;;;;;13.63;5.40;;;;;;;11.26;100.00;101252.19;4964949;28;20041;-66
2022/11/06 03:43:04;;;;;;;13.32;5.80;;;;;;;11.33;100.00;101242.28;4971009;28;20031;-67
2022/11/06 03:45:30;;;;;;;15.85;5.30;;;;;;;11.27;100.00;101232.78;4971307;28;20018;-67
2022/11/06 03:48:11;;;;;;;14.20;5.63;;;;;;;11.28;100.00;101223.97;4969914;28;20444;-66
2022/11/06 03:50:47;;;;;;;14.65;6.10;;;;;;;11.22;100.00;101229.41;4988775;28;20026;-67
2022/11/06 03:53:38;;;;;;;12.48;6.25;;;;;;;11.24;100.00;101246.06;4971256;28;20034;-68
2022/11/06 03:56:07;;;;;;;10.27;6.00;;;;;;;11.34;100.00;101244.88;4988530;28;20034;-66
2022/11/06 03:58:37;;;;;;;15.05;6.03;;;;;;;11.33;100.00;101235.25;4971097;28;20077;-66
2022/11/06 04:01:04;;;;;;;15.73;5.90;;;;;;;11.33;100.00;101218.53;4971240;28;20492;-66
2022/11/06 04:03:38;;;;;;;13.52;5.63;;;;;;;11.29;100.00;101216.91;4970901;28;20057;-68
2022/11/06 04:06:14;;;;;;;12.73;5.68;;;;;;;11.15;100.00;101207.66;4970626;28;20030;-67
2022/11/06 04:14:13;;;;;;;13.82;4.90;;;;;;;11.33;100.00;101197.44;4993384;28;20673;-66
2022/11/06 04:16:42;;;;;;;11.00;5.30;;;;;;;11.24;100.00;101194.19;4989272;28;20036;-65
2022/11/06 04:19:22;;;;;;;10.35;5.10;;;;;;;11.34;100.00;101202.66;5007404;28;20280;-66
2022/11/06 04:22:05;;;;;;;18.92;5.60;;;;;;;11.24;100.00;101202.09;5007442;28;20025;-63
2022/11/06 04:28:11;;;;;;;12.68;4.38;;;;;;;11.39;100.00;101197.25;4990767;28;20041;-66
2022/11/06 04:30:49;;;;;;;10.95;4.25;;;;;;;11.47;100.00;101186.47;5007998;28;20022;-66
2022/11/06 04:33:24;;;;;;;11.48;4.57;;;;;;;11.44;100.00;101183.91;4989352;28;20018;-66
2022/11/06 04:36:00;;;;;;;10.55;4.38;;;;;;;11.55;100.00;101194.09;4989725;28;20057;-66
2022/11/06 04:38:50;;;;;;;10.73;4.22;;;;;;;11.45;100.00;101189.16;4989858;28;20465;-67
2022/11/06 04:41:37;;;;;;;13.70;4.60;;;;;;;11.48;100.00;101188.16;5007353;28;20025;-66
2022/11/06 04:44:18;;;;;;;8.20;4.35;;;;;;;11.55;100.00;101176.50;4989690;28;20087;-67
2022/11/06 04:46:51;;;;;;;16.05;5.00;;;;;;;11.52;100.00;101181.00;4989123;28;20018;-67
2022/11/06 04:49:17;;;;;;;13.15;4.45;;;;;;;11.56;100.00;101175.56;4989807;28;20038;-67
2022/11/06 04:51:43;;;;;;;16.52;4.50;;;;;;;11.55;100.00;101162.44;5007291;28;20076;-66
2022/11/06 04:54:09;;;;;;;15.15;4.80;;;;;;;11.41;100.00;101176.09;4989348;28;20026;-66
2022/11/06 04:56:35;;;;;;;18.33;4.82;;;;;;;11.42;100.00;101175.16;5007159;28;20083;-66
2022/11/06 04:59:02;;;;;;;14.10;4.15;;;;;;;11.46;100.00;101164.47;5007536;28;20046;-68
2022/11/06 05:01:28;;;;;;;13.73;4.20;;;;;;;11.54;100.00;101166.00;5007003;28;20030;-68
2022/11/06 05:03:53;;;;;;;12.93;4.57;;;;;;;11.43;100.00;101167.22;5007579;28;20034;-67
2022/11/06 05:06:18;;;;;;;13.13;4.40;;;;;;;11.45;100.00;101170.66;5006938;28;20030;-66
2022/11/06 05:08:45;;;;;;;12.02;4.68;;;;;;;11.40;100.00;101169.06;5006833;28;20099;-67
2022/11/06 05:11:10;;;;;;;11.05;4.78;;;;;;;11.37;100.00;101165.63;5007500;28;20057;-68
2022/11/06 05:13:37;;;;;;;15.48;4.50;;;;;;;11.28;100.00;101155.38;5007202;28;20064;-66
2022/11/06 05:16:02;;;;;;;13.68;5.03;;;;;;;11.34;100.00;101160.44;5007707;28;20069;-68
2022/11/06 05:18:28;;;;;;;13.77;4.72;;;;;;;11.23;100.00;101157.31;5009542;28;20061;-66
2022/11/06 05:23:37;;;;;;;8.70;3.95;;;;;;;11.23;100.00;101147.59;5009570;28;20045;-68
2022/11/06 05:26:03;;;;;;;11.98;4.55;;;;;;;11.23;100.00;101152.03;5008173;28;20021;-66
2022/11/06 05:28:29;;;;;;;13.45;4.68;;;;;;;11.25;100.00;101132.59;5009431;28;20034;-68
2022/11/06 05:30:54;;;;;;;9.68;4.63;;;;;;;11.16;100.00;101129.38;4975054;28;20037;-67
2022/11/06 05:33:19;;;;;;;13.23;4.78;;;;;;;11.25;100.00;101129.97;5008372;28;20030;-68
2022/11/06 05:35:45;;;;;;;13.07;4.80;;;;;;;11.19;100.00;101130.16;5008429;28;20052;-67
2022/11/06 05:38:10;;;;;;;12.90;4.13;;;;;;;11.26;100.00;101125.56;5009631;28;20041;-68
2022/11/06 05:40:35;;;;;;;15.98;4.63;;;;;;;11.32;100.00;101130.59;5009094;28;20053;-69
2022/11/06 05:43:01;;;;;;;12.63;4.28;;;;;;;11.27;100.00;101137.81;5009114;28;20041;-66
2022/11/06 05:45:26;;;;;;;11.35;4.30;;;;;;;11.27;100.00;101123.75;5008983;28;20041;-66
2022/11/06 05:47:51;;;;;;;10.00;4.72;;;;;;;11.23;100.00;101125.66;4990967;28;20108;-67
2022/11/06 05:50:17;;;;;;;12.13;4.47;;;;;;;11.08;100.00;101114.66;5009466;28;20037;-68
2022/11/06 05:52:42;;;;;;;14.57;4.25;;;;;;;11.19;100.00;101113.44;5009450;28;20101;-68
2022/11/06 05:55:08;;;;;;;10.65;3.78;;;;;;;11.30;100.00;101105.19;4990991;28;20141;-69
2022/11/06 05:57:33;;;;;;;12.80;4.10;;;;;;;11.20;100.00;101116.03;5009035;28;20033;-66
2022/11/06 05:59:58;;;;;;;12.35;4.18;;;;;;;11.27;100.00;101114.09;5008788;28;20504;-66
2022/11/06 06:02:24;;;;;;;15.70;4.38;;;;;;;11.31;100.00;101101.63;5008304;28;20034;-68
2022/11/06 06:04:49;;;;;;;10.52;4.10;;;;;;;11.29;100.00;101100.84;5008607;28;20524;-68
2022/11/06 06:07:14;;;;;;;10.60;4.30;;;;;;;11.27;100.00;101100.91;5008891;28;20026;-68
2022/11/06 06:09:40;;;;;;;10.13;3.97;;;;;;;11.26;100.00;101104.44;5009282;28;20034;-68
2022/11/06 06:12:05;;;;;;;13.18;4.50;;;;;;;11.21;100.00;101101.09;5008438;28;20028;-66
2022/11/06 06:14:31;;;;;;;12.25;4.35;;;;;;;11.19;100.00;101098.50;5010278;28;20141;-67
2022/11/06 06:16:56;;;;;;;10.63;4.28;;;;;;;11.22;100.00;101100.16;5008699;28;20018;-67
2022/11/06 06:19:21;;;;;;;10.25;4.53;;;;;;;11.18;100.00;101104.69;5009321;28;20070;-68
2022/11/06 06:21:48;;;;;;;11.15;4.55;;;;;;;11.26;100.00;101109.72;5008586;28;20205;-68
2022/11/06 06:24:13;;;;;;;11.32;4.45;;;;;;;11.26;100.00;101099.19;4990836;28;20053;-69
2022/11/06 06:26:38;;;;;;;9.02;4.32;;;;;;;11.25;100.00;101102.72;5007891;28;20486;-67
2022/11/06 06:29:04;;;;;;;14.05;3.90;;;;;;;11.25;100.00;101100.06;5008676;28;20032;-68
2022/11/06 06:31:29;;;;;;;11.27;3.85;;;;;;;11.29;100.00;101095.56;5008373;28;20106;-67
2022/11/06 06:33:54;;;;;;;11.45;3.80;;;;;;;11.20;100.00;101094.09;5008138;28;20109;-67
2022/11/06 06:36:20;;;;;;;9.68;3.80;;;;;;;11.28;100.00;101089.41;5008627;28;20065;-67
2022/11/06 06:38:45;;;;;;;8.50;3.40;;;;;;;11.28;100.00;101093.81;5006007;28;20127;-68
2022/11/06 06:41:10;;;;;;;13.73;4.35;;;;;;;11.12;100.00;101087.31;5008327;28;20606;-66
2022/11/06 06:43:36;;;;;;;8.52;3.83;;;;;;;11.21;100.00;101077.34;5008449;28;20029;-67
2022/11/06 06:46:03;;;;;;;9.80;4.07;;;;;;;11.17;100.00;101081.84;5007712;28;20017;-67
2022/11/06 06:48:29;;;;;;;9.65;3.80;;;;;;;11.16;100.00;101073.97;5006100;28;20451;-67
2022/11/06 06:50:59;;;;;;;5.10;3.13;;;;;;;11.19;100.00;101073.88;5008086;28;20125;-68
2022/11/06 06:53:24;;;;;;;13.40;4.00;;;;;;;11.21;100.00;101077.34;5003767;28;20369;-68
2022/11/06 06:55:50;;;;;;;15.20;3.97;;;;;;;11.31;100.00;101075.25;5008279;28;20148;-67
2022/11/06 06:58:15;;;;;;;12.15;3.15;;;;;;;11.31;100.00;101076.13;5007985;28;20466;-69
2022/11/06 07:00:40;;;;;;;12.98;3.10;;;;;;;11.33;100.00;101073.44;5007971;28;20492;-69
2022/11/06 07:03:06;;;;;;;10.43;3.55;;;;;;;11.42;100.00;101062.59;5007272;28;20030;-67
2022/11/06 07:05:31;;;;;;;12.57;3.20;;;;;;;11.37;100.00;101065.38;5007447;28;20038;-69
2022/11/06 07:07:56;;;;;;;10.65;3.03;;;;;;;11.44;100.00;101059.91;5006472;28;20153;-65
2022/11/06 07:10:22;;;;;;;10.50;3.08;;;;;;;11.60;100.00;101061.09;5007593;28;20041;-68
2022/11/06 07:12:47;;;;;;;12.75;3.28;;;;;;;11.57;100.00;101055.06;5008040;28;20018;-66
2022/11/06 07:15:13;;;;;;;10.43;3.03;;;;;;;11.52;100.00;101065.75;5008243;28;20018;-66
2022/11/06 07:17:38;;;;;;;14.55;3.25;;;;;;;11.55;100.00;101047.19;5006993;28;20029;-67
2022/11/06 07:20:04;;;;;;;13.10;3.20;;;;;;;11.60;100.00;101052.31;5007473;28;20454;-68
2022/11/06 07:22:30;;;;;;;10.73;3.05;;;;;;;11.63;100.00;101049.56;5007422;28;20493;-67
2022/11/06 07:24:55;;;;;;;9.57;2.78;;;;;;;11.58;100.00;101060.28;5007306;28;20097;-69
2022/11/06 07:27:20;;;;;;;9.23;3.30;;;;;;;11.59;100.00;101059.34;5007798;28;20103;-66
2022/11/06 07:29:46;;;;;;;7.03;2.83;;;;;;;11.66;100.00;101059.16;5007688;28;20022;-67
2022/11/06 07:32:11;;;;;;;7.65;3.20;;;;;;;11.57;100.00;101055.06;5006609;28;20060;-66
2022/11/06 07:34:37;;;;;;;13.15;2.90;;;;;;;11.68;100.00;101055.53;4989410;28;20054;-65
2022/11/06 07:37:04;;;;;;;8.90;2.55;;;;;;;11.78;100.00;101053.44;5006879;28;20034;-65
2022/11/06 07:39:29;;;;;;;7.78;2.33;;;;;;;11.96;100.00;101051.06;5006516;28;20425;-65
2022/11/06 07:41:55;;;;;;;9.52;2.75;;;;;;;11.96;100.00;101040.50;5006550;28;20045;-67
2022/11/06 07:44:20;;;;;;;10.30;2.58;;;;;;;12.04;100.00;101051.63;5006932;28;20072;-66
2022/11/06 07:46:45;;;;;;;7.40;2.40;;;;;;;11.91;100.00;101045.94;5005755;28;20141;-67
2022/11/06 07:49:11;;;;;;;8.85;2.45;;;;;;;12.07;100.00;101045.41;5007909;28;20075;-68
2022/11/06 07:51:36;;;;;;;4.82;2.10;;;;;;;12.11;100.00;101041.75;5006840;28;20088;-67
2022/11/06 07:54:02;;;;;;;10.15;2.95;;;;;;;12.09;100.00;101041.78;5005870;28;20029;-66
2022/11/06 07:56:27;;;;;;;10.43;2.30;;;;;;;12.03;100.00;101035.84;5006546;28;20026;-68
2022/11/06 07:58:52;;;;;;;9.55;2.25;;;;;;;12.07;100.00;101042.78;5006679;28;20045;-68
2022/11/06 08:01:18;;;;;;;12.60;2.33;;;;;;;12.05;100.00;101050.72;5006704;28;20412;-68
2022/11/06 08:03:43;;;;;;;6.22;2.15;;;;;;;12.21;100.00;101047.53;5007837;28;20498;-66
2022/11/06 08:06:08;;;;;;;6.00;2.22;;;;;;;12.25;100.00;101050.00;5007215;28;20072;-68
2022/11/06 08:08:34;;;;;;;5.28;1.95;;;;;;;12.29;100.00;101058.69;5006463;28;20065;-68
2022/11/06 08:11:04;;;;;;;10.02;2.67;;;;;;;12.28;100.00;101056.94;5005076;28;20034;-67
2022/11/06 08:13:30;;;;;;;5.15;1.98;;;;;;;12.17;100.00;101056.50;5004623;28;20014;-67
2022/11/06 08:15:55;;;;;;;7.20;1.80;;;;;;;12.25;100.00;101051.78;4985979;28;20026;-68
2022/11/06 08:18:20;;;;;;;8.63;2.38;;;;;;;12.13;100.00;101047.81;5004900;28;20040;-67
2022/11/06 08:20:46;;;;;;;9.35;2.38;;;;;;;12.13;100.00;101043.41;5005300;28;20060;-70
2022/11/06 08:23:12;;;;;;;4.45;1.98;;;;;;;12.11;100.00;101047.03;5005171;28;20026;-66
2022/11/06 08:25:38;;;;;;;5.20;2.10;;;;;;;12.17;100.00;101043.28;5006688;28;20098;-68
2022/11/06 08:28:04;;;;;;;7.45;2.30;;;;;;;12.01;100.00;101033.25;5005939;28;20029;-68
2022/11/06 08:30:30;;;;;;;9.07;2.45;;;;;;;11.99;100.00;101033.34;5005565;28;20033;-65
2022/11/06 08:32:59;;;;;;;11.35;2.30;;;;;;;11.91;100.00;101031.84;5005516;28;20014;-66
2022/11/06 08:35:25;;;;;;;6.72;2.00;;;;;;;12.06;100.00;101033.06;5005822;28;20079;-67
2022/11/06 08:37:50;;;;;;;8.25;2.78;;;;;;;12.11;100.00;101032.03;5006088;28;20022;-66
2022/11/06 08:40:16;;;;;;;6.82;2.40;;;;;;;12.10;100.00;101026.81;5005855;28;20094;-65
2022/11/06 08:42:41;;;;;;;7.03;2.30;;;;;;;12.01;100.00;101017.41;5006451;28;20389;-68
2022/11/06 08:45:07;;;;;;;8.25;2.60;;;;;;;12.10;100.00;101017.09;5005963;28;20439;-66
2022/11/06 08:47:33;;;;;;;6.28;2.03;;;;;;;12.08;100.00;101007.50;5005193;28;20030;-65
2022/11/06 08:49:58;;;;;;;9.70;2.85;;;;;;;11.97;100.00;100994.66;5003570;28;20102;-68
2022/11/06 08:52:23;;;;;;;8.88;2.53;;;;;;;12.00;100.00;100999.84;5006145;28;20061;-67
2022/11/06 08:54:49;;;;;;;7.25;2.53;;;;;;;11.97;100.00;100995.53;5007224;28;20020;-65
2022/11/06 08:57:15;;;;;;;5.00;2.13;;;;;;;11.88;100.00;100991.47;5009804;28;20026;-66
2022/11/06 08:59:40;;;;;;;7.07;2.17;;;;;;;11.96;100.00;100992.97;5010357;28;20479;-66
2022/11/06 09:02:05;;;;;;;5.78;3.00;;;;;;;12.00;100.00;100992.78;5006122;28;20533;-66
2022/11/06 09:04:31;;;;;;;9.60;2.15;;;;;;;12.03;100.00;100985.66;5009890;28;20556;-65
2022/11/06 09:06:57;;;;;;;7.57;2.28;;;;;;;12.08;100.00;100991.66;4989250;28;20025;-67
2022/11/06 09:09:30;;;;;;;9.70;2.40;;;;;;;12.15;100.00;100985.22;5007636;28;20042;-68
2022/11/06 09:11:56;;;;;;;5.80;2.33;;;;;;;12.27;100.00;100975.97;5004415;28;20036;-68
2022/11/06 09:14:22;;;;;;;10.93;3.40;;;;;;;12.31;100.00;100971.44;5010238;28;20026;-65
2022/11/06 09:16:47;;;;;;;7.15;2.53;;;;;;;12.34;100.00;100968.69;5008547;28;20025;-67
2022/11/06 09:19:12;;;;;;;10.70;2.67;;;;;;;12.38;100.00;100963.19;4992592;28;20100;-68
2022/11/06 09:21:39;;;;;;;6.15;3.03;;;;;;;12.29;100.00;100963.56;5009707;28;20105;-66
2022/11/06 09:24:04;;;;;;;9.48;2.75;;;;;;;12.38;100.00;100960.53;5009801;28;20037;-67
2022/11/06 09:26:30;;;;;;;11.10;2.97;;;;;;;12.60;100.00;100962.34;5009944;28;20026;-68
2022/11/06 09:28:55;;;;;;;10.05;2.50;;;;;;;12.66;100.00;100963.00;5009807;28;20040;-66
2022/11/06 09:31:20;;;;;;;18.30;2.65;;;;;;;12.71;100.00;100964.56;5009342;28;20032;-68
2022/11/06 09:33:46;;;;;;;10.27;2.42;;;;;;;12.80;100.00;100970.38;4991910;28;20382;-66
2022/11/06 09:36:11;;;;;;;6.05;2.13;;;;;;;12.83;100.00;100964.97;5009653;28;20050;-65
2022/11/06 09:38:36;;;;;;;11.10;2.85;;;;;;;12.87;100.00;100964.78;5009397;28;20383;-66
2022/11/06 09:41:03;;;;;;;6.00;2.50;;;;;;;13.09;100.00;100953.28;4991498;28;20460;-66
2022/11/06 09:44:10;;;;;;;6.40;2.38;;;;;;;13.14;100.00;100955.72;5009317;28;20045;-66
2022/11/06 09:46:41;;;;;;;8.32;2.58;;;;;;;13.20;100.00;100958.13;5005522;28;20493;-70
2022/11/06 09:49:23;;;;;;;7.13;2.47;;;;;;;13.31;100.00;100954.16;4991592;28;20029;-68
2022/11/06 09:52:38;;;;;;;6.68;2.38;;;;;;;13.27;100.00;100948.13;5009015;28;20095;-67
2022/11/06 09:55:05;;;;;;;5.53;2.22;;;;;;;13.24;100.00;100951.75;5001951;28;20042;-67
2022/11/06 09:57:37;;;;;;;10.18;2.35;;;;;;;13.41;100.00;100939.59;5006383;28;20030;-67
2022/11/06 10:00:04;;;;;;;6.35;2.78;;;;;;;13.32;100.00;100942.63;4991275;28;20396;-66
2022/11/06 10:02:39;;;;;;;5.93;2.33;;;;;;;13.52;100.00;100934.69;5007989;28;20022;-67
2022/11/06 10:05:24;;;;;;;5.40;2.05;;;;;;;13.60;100.00;100930.84;4990662;28;20393;-67
2022/11/06 10:07:52;;;;;;;10.23;2.13;;;;;;;13.44;100.00;100941.22;5005687;28;20392;-67
2022/11/06 10:10:19;;;;;;;7.00;2.22;;;;;;;13.37;100.00;100928.25;5006714;28;20234;-69
2022/11/06 10:12:57;;;;;;;9.45;2.42;;;;;;;13.34;100.00;100927.56;5007680;28;20062;-66
2022/11/06 10:15:28;;;;;;;7.22;2.13;;;;;;;13.33;100.00;100928.50;5008679;28;20128;-68
2022/11/06 10:17:53;;;;;;;13.32;2.30;;;;;;;13.39;100.00;100926.41;5007426;28;20026;-64
2022/11/06 10:20:43;;;;;;;6.15;2.10;;;;;;;13.43;100.00;100923.63;5008528;28;20044;-63
2022/11/06 10:23:19;;;;;;;4.50;1.88;;;;;;;13.31;100.00;100920.63;4997519;28;20397;-63
2022/11/06 10:26:20;;;;;;;7.78;1.98;;;;;;;13.45;100.00;100919.13;5007532;28;20025;-65
2022/11/06 10:29:18;;;;;;;9.70;2.13;;;;;;;13.82;100.00;100908.69;4947275;29;20035;-63
2022/11/06 10:31:52;;;;;;;10.30;2.38;;;;;;;13.80;100.00;100908.75;5005904;28;20238;-64
2022/11/06 10:34:53;;;;;;;5.47;2.00;;;;;;;13.98;100.00;100914.97;5007640;28;20018;-64
2022/11/06 10:37:53;;;;;;;9.45;2.20;;;;;;;14.06;100.00;100904.00;5005273;28;20116;-64
2022/11/06 10:40:23;;;;;;;6.22;2.10;;;;;;;14.08;100.00;100904.78;4965380;28;20425;-64
2022/11/06 10:43:11;;;;;;;11.07;1.88;;;;;;;14.02;100.00;100899.78;4999076;28;20493;-63
2022/11/06 10:45:39;;;;;;;9.70;2.10;;;;;;;13.98;100.00;100877.91;5006578;28;20029;-65
2022/11/06 10:48:24;;;;;;;6.40;1.65;;;;;;;13.81;100.00;100889.28;5007312;28;20014;-64
2022/11/06 10:51:13;;;;;;;8.18;1.80;;;;;;;13.75;100.00;100877.19;5020962;28;20023;-65
2022/11/06 10:54:01;;;;;;;5.28;1.70;;;;;;;13.71;100.00;100877.41;4997351;28;20028;-64
2022/11/06 10:56:39;;;;;;;5.43;1.70;;;;;;;13.76;100.00;100865.66;5006618;28;20026;-63
2022/11/06 10:59:04;;;;;;;7.15;1.90;;;;;;;13.95;100.00;100866.56;5006805;28;20057;-64
2022/11/06 11:01:30;;;;;;;6.00;1.75;;;;;;;13.93;100.00;100860.50;5006152;28;20030;-64
2022/11/06 11:03:55;;;;;;;5.32;1.95;;;;;;;13.88;100.00;100871.31;5006808;28;20030;-64
2022/11/06 11:06:20;;;;;;;10.98;2.33;;;;;;;13.68;100.00;100865.16;5005896;28;20544;-64
2022/11/06 11:08:50;;;;;;;6.38;1.77;;;;;;;13.59;100.00;100861.16;5006152;28;20097;-65
2022/11/06 11:11:22;;;;;;;9.77;2.13;;;;;;;13.48;100.00;100856.31;4989519;28;20469;-64
2022/11/06 11:14:00;;;;;;;3.78;1.73;;;;;;;13.23;100.00;100843.34;5008177;28;20376;-63
2022/11/06 11:16:34;;;;;;;8.55;1.67;;;;;;;13.24;100.00;100847.69;4999570;28;20507;-63
2022/11/06 11:19:23;;;;;;;8.15;1.85;;;;;;;13.18;100.00;100853.28;4989352;28;20064;-64
2022/11/06 11:22:03;;;;;;;7.40;2.40;;;;;;;12.91;100.00;100861.50;5007019;28;20030;-64
2022/11/06 11:24:28;;;;;;;7.43;1.80;;;;;;;12.96;100.00;100847.16;5007415;28;20026;-63
2022/11/06 11:26:58;;;;;;;5.55;2.20;;;;;;;12.96;100.00;100838.34;4990287;28;20079;-62
2022/11/06 11:29:26;;;;;;;7.65;1.83;;;;;;;12.97;100.00;100834.78;5007175;28;20076;-64
2022/11/06 11:31:55;;;;;;;6.35;1.80;;;;;;;12.88;100.00;100834.25;4985810;28;20384;-64
2022/11/06 11:34:25;;;;;;;9.00;2.17;;;;;;;12.79;100.00;100836.47;5004485;28;20049;-65
2022/11/06 11:36:57;;;;;;;8.95;2.60;;;;;;;12.83;100.00;100836.28;4988758;28;20057;-63
2022/11/06 11:39:28;;;;;;;11.20;2.53;;;;;;;12.82;100.00;100831.03;5005970;28;20033;-64